Wilson Observed Data For Previous 48 Hours

Caption
Day and Hour Reservoir Elevation (behind dam)* Tailwater Elevation (below dam)* Average Hourly Discharge*
12/10/2018 1 AM CST 506.11 419.91 129,526
12/10/2018 2 AM CST 506.16 419.92 129,806
12/10/2018 3 AM CST 506.20 419.96 129,631
12/10/2018 4 AM CST 506.24 419.94 129,699
12/10/2018 5 AM CST 506.28 419.92 129,750
12/10/2018 6 AM CST 506.29 419.98 129,935
12/10/2018 7 AM CST 506.36 419.95 129,788
12/10/2018 8 AM CST 506.37 419.98 129,805
12/10/2018 9 AM CST 506.42 419.91 129,947
12/10/2018 10 AM CST 506.51 419.96 129,850
12/10/2018 11 AM CST 506.51 419.96 129,487
12/10/2018 12 PM CST 506.53 420.06 130,112
12/10/2018 1 PM CST 506.65 420.34 138,719
12/10/2018 2 PM CST 506.60 420.83 148,068
12/10/2018 3 PM CST 506.64 420.96 149,915
12/10/2018 4 PM CST 506.62 421.18 150,078
12/10/2018 5 PM CST 506.63 420.98 149,994
12/10/2018 6 PM CST 506.61 421.00 149,793
12/10/2018 7 PM CST 506.62 420.98 149,975
12/10/2018 8 PM CST 506.63 420.98 149,918
12/10/2018 9 PM CST 506.62 421.01 149,884
12/10/2018 10 PM CST 506.62 421.01 150,052
12/10/2018 11 PM CST 506.62 420.97 149,939
12/11/2018 12 AM CST 506.62 421.02 150,034
12/11/2018 1 AM CST 506.62 420.99 149,937
12/11/2018 2 AM CST 506.62 420.99 150,222
12/11/2018 3 AM CST 506.62 421.02 149,958
12/11/2018 4 AM CST 506.61 421.01 150,062
12/11/2018 5 AM CST 506.61 421.00 150,052
12/11/2018 6 AM CST 506.60 421.00 150,025
12/11/2018 7 AM CST 506.59 421.01 149,979
12/11/2018 8 AM CST 506.59 420.99 149,943
12/11/2018 9 AM CST 506.58 421.01 149,683
12/11/2018 10 AM CST 506.58 421.03 149,752
12/11/2018 11 AM CST 506.58 420.97 149,777
12/11/2018 12 PM CST 506.56 421.02 149,824
12/11/2018 1 PM CST 506.54 421.02 149,333
12/11/2018 2 PM CST 506.39 421.24 149,237
12/11/2018 3 PM CST 506.43 421.01 149,669
12/11/2018 4 PM CST 506.44 421.07 149,637
12/11/2018 5 PM CST 506.41 420.98 149,822
12/11/2018 6 PM CST 506.38 421.03 150,072
12/11/2018 7 PM CST 506.40 421.02 149,926
12/11/2018 8 PM CST 506.39 421.03 149,860
12/11/2018 9 PM CST 506.37 421.01 149,805
12/11/2018 10 PM CST 506.36 421.02 149,875
12/11/2018 11 PM CST 506.36 420.98 149,756
12/12/2018 12 AM CST 506.35 421.01 149,729
12/12/2018 1 AM CST 506.34 421.01 149,787
12/12/2018 2 AM CST 506.33 421.02 149,586

Elevations are in feet above sea level. Discharges are in cubic feet per second and are reported at the end of the hour.